Time,TemperatureF,DewpointF,PressureIn,WindDirection,WindDirectionDegrees,WindSpeedMPH,WindSpeedGustMPH,Humidity,HourlyPrecipIn,Conditions,Clouds,dailyrainin,SoftwareType,DateUTC
2015-03-27 00:00:00,48.8,47.2,30.20,NW,309,0.0,1.0,94,0.00,,,0.01,Wunderground v.1.15,2015-03-27 07:00:00,
2015-03-27 00:05:00,48.4,45.9,30.20,WNW,302,0.0,1.0,91,0.00,,,0.00,Wunderground v.1.15,2015-03-27 07:05:00,
2015-03-27 00:11:00,47.3,44.5,30.20,East,85,1.0,1.0,90,0.00,,,0.00,Wunderground v.1.15,2015-03-27 07:11:00,
2015-03-27 00:17:00,46.9,44.7,30.20,East,85,0.0,1.0,92,0.00,,,0.00,Wunderground v.1.15,2015-03-27 07:17:00,
2015-03-27 00:23:00,46.9,45.0,30.20,East,85,0.0,1.0,93,0.00,,,0.00,Wunderground v.1.15,2015-03-27 07:23:00,
2015-03-27 00:29:00,46.8,44.6,30.20,East,85,0.0,1.0,92,0.00,,,0.00,Wunderground v.1.15,2015-03-27 07:29:00,
2015-03-27 00:34:00,46.1,43.9,30.20,East,85,0.0,1.0,92,0.00,,,0.00,Wunderground v.1.15,2015-03-27 07:34:00,
2015-03-27 00:40:00,45.9,43.7,30.20,East,85,0.0,0.0,92,0.00,,,0.00,Wunderground v.1.15,2015-03-27 07:40:00,
2015-03-27 00:46:00,45.2,42.7,30.20,NW,307,0.0,0.0,91,0.00,,,0.00,Wunderground v.1.15,2015-03-27 07:46:00,
2015-03-27 00:52:00,44.4,42.2,30.20,NW,307,0.0,0.0,92,0.00,,,0.00,Wunderground v.1.15,2015-03-27 07:52:00,
2015-03-27 00:58:00,44.5,42.9,30.20,NW,306,0.0,0.0,94,0.00,,,0.00,Wunderground v.1.15,2015-03-27 07:58:00,
2015-03-27 01:04:00,44.7,43.4,30.20,NW,306,0.0,0.0,95,0.00,,,0.00,Wunderground v.1.15,2015-03-27 08:04:00,
2015-03-27 01:09:00,44.4,43.1,30.20,SSW,201,0.0,0.0,95,0.00,,,0.00,Wunderground v.1.15,2015-03-27 08:09:00,
2015-03-27 01:15:00,43.9,42.3,30.20,SW,224,0.0,1.0,94,0.00,,,0.00,Wunderground v.1.15,2015-03-27 08:15:00,
2015-03-27 01:21:00,43.7,42.4,30.19,SW,221,1.0,1.0,95,0.00,,,0.00,Wunderground v.1.15,2015-03-27 08:21:00,
2015-03-27 01:27:00,43.3,42.0,30.20,SW,221,0.0,1.0,95,0.00,,,0.00,Wunderground v.1.15,2015-03-27 08:27:00,
2015-03-27 01:33:00,43.0,41.9,30.20,SSW,204,1.0,2.0,96,0.00,,,0.00,Wunderground v.1.15,2015-03-27 08:33:00,
2015-03-27 01:39:00,43.1,42.3,30.20,SSW,205,2.0,3.0,97,0.00,,,0.00,Wunderground v.1.15,2015-03-27 08:39:00,
2015-03-27 01:44:00,42.8,41.7,30.20,SW,214,2.0,3.0,96,0.00,,,0.00,Wunderground v.1.15,2015-03-27 08:44:00,
2015-03-27 01:50:00,42.7,41.9,30.20,SSW,200,2.0,2.0,97,0.00,,,0.00,Wunderground v.1.15,2015-03-27 08:50:00,
2015-03-27 01:56:00,43.2,42.7,30.20,South,173,2.0,2.0,98,0.00,,,0.00,Wunderground v.1.15,2015-03-27 08:56:00,
2015-03-27 02:01:00,43.2,42.4,30.20,South,173,1.0,1.0,97,0.00,,,0.00,Wunderground v.1.15,2015-03-27 09:01:00,
2015-03-27 02:07:00,42.7,41.9,30.19,South,173,0.0,1.0,97,0.00,,,0.00,Wunderground v.1.15,2015-03-27 09:07:00,
2015-03-27 02:13:00,42.5,41.7,30.19,South,173,0.0,0.0,97,0.00,,,0.00,Wunderground v.1.15,2015-03-27 09:13:00,
2015-03-27 02:19:00,42.4,41.6,30.19,South,173,0.0,0.0,97,0.00,,,0.00,Wunderground v.1.15,2015-03-27 09:19:00,
2015-03-27 02:24:00,42.0,41.2,30.20,South,173,0.0,0.0,97,0.00,,,0.00,Wunderground v.1.15,2015-03-27 09:24:00,
2015-03-27 02:30:00,42.0,41.2,30.19,SW,217,0.0,1.0,97,0.00,,,0.00,Wunderground v.1.15,2015-03-27 09:30:00,
2015-03-27 02:36:00,41.9,41.1,30.20,SW,217,1.0,2.0,97,0.00,,,0.00,Wunderground v.1.15,2015-03-27 09:36:00,
2015-03-27 02:42:00,41.7,41.2,30.20,SW,217,1.0,2.0,98,0.00,,,0.00,Wunderground v.1.15,2015-03-27 09:42:00,
2015-03-27 02:48:00,41.9,41.4,30.19,SW,217,0.0,2.0,98,0.00,,,0.00,Wunderground v.1.15,2015-03-27 09:48:00,
2015-03-27 02:54:00,41.7,41.2,30.19,SW,217,0.0,2.0,98,0.00,,,0.00,Wunderground v.1.15,2015-03-27 09:54:00,
2015-03-27 03:00:00,41.3,40.5,30.19,SW,217,0.0,0.0,97,0.00,,,0.00,Wunderground v.1.15,2015-03-27 10:00:00,
2015-03-27 03:06:00,41.2,40.7,30.19,SW,217,0.0,0.0,98,0.00,,,0.00,Wunderground v.1.15,2015-03-27 10:06:00,
2015-03-27 03:12:00,41.1,40.6,30.19,SW,217,0.0,0.0,98,0.00,,,0.00,Wunderground v.1.15,2015-03-27 10:12:00,
2015-03-27 03:18:00,41.2,40.7,30.19,SW,217,0.0,1.0,98,0.00,,,0.00,Wunderground v.1.15,2015-03-27 10:18:00,
2015-03-27 03:24:00,41.6,41.1,30.19,SW,217,0.0,0.0,98,0.00,,,0.00,Wunderground v.1.15,2015-03-27 10:24:00,
2015-03-27 03:29:00,41.6,41.1,30.19,SW,217,0.0,0.0,98,0.00,,,0.00,Wunderground v.1.15,2015-03-27 10:29:00,
2015-03-27 03:34:00,41.5,41.0,30.19,SW,217,0.0,1.0,98,0.00,,,0.00,Wunderground v.1.15,2015-03-27 10:34:00,
2015-03-27 03:40:00,41.3,40.8,30.19,SW,217,0.0,1.0,98,0.00,,,0.00,Wunderground v.1.15,2015-03-27 10:40:00,
2015-03-27 03:45:00,40.7,39.9,30.19,SE,138,0.0,1.0,97,0.00,,,0.00,Wunderground v.1.15,2015-03-27 10:45:00,
2015-03-27 03:50:00,40.2,39.4,30.19,SE,127,0.0,1.0,97,0.00,,,0.00,Wunderground v.1.15,2015-03-27 10:50:00,
2015-03-27 03:55:00,40.6,40.1,30.19,SE,127,0.0,1.0,98,0.00,,,0.00,Wunderground v.1.15,2015-03-27 10:55:00,
2015-03-27 04:00:00,40.6,40.1,30.19,WSW,240,0.0,0.0,98,0.00,,,0.00,Wunderground v.1.15,2015-03-27 11:00:00,
2015-03-27 04:06:00,40.0,39.2,30.19,WSW,240,0.0,0.0,97,0.00,,,0.00,Wunderground v.1.15,2015-03-27 11:06:00,
2015-03-27 04:12:00,40.0,39.5,30.19,WSW,240,0.0,0.0,98,0.00,,,0.00,Wunderground v.1.15,2015-03-27 11:12:00,
2015-03-27 04:17:00,40.3,40.0,30.19,WSW,240,0.0,0.0,99,0.00,,,0.00,Wunderground v.1.15,2015-03-27 11:17:00,
2015-03-27 04:23:00,40.4,40.1,30.18,WSW,240,0.0,0.0,99,0.00,,,0.00,Wunderground v.1.15,2015-03-27 11:23:00,
2015-03-27 04:29:00,40.0,39.5,30.18,WSW,240,0.0,0.0,98,0.00,,,0.00,Wunderground v.1.15,2015-03-27 11:29:00,
2015-03-27 04:34:00,40.1,39.6,30.18,WSW,240,0.0,1.0,98,0.00,,,0.00,Wunderground v.1.15,2015-03-27 11:34:00,
2015-03-27 04:40:00,39.5,38.7,30.18,WSW,249,0.0,1.0,97,0.00,,,0.00,Wunderground v.1.15,2015-03-27 11:40:00,
2015-03-27 04:46:00,39.3,38.8,30.18,SW,235,0.0,1.0,98,0.00,,,0.00,Wunderground v.1.15,2015-03-27 11:46:00,
2015-03-27 04:52:00,39.5,39.2,30.18,SW,235,0.0,1.0,99,0.00,,,0.00,Wunderground v.1.15,2015-03-27 11:52:00,
2015-03-27 04:57:00,39.4,39.1,30.18,SW,235,0.0,1.0,99,0.00,,,0.00,Wunderground v.1.15,2015-03-27 11:57:00,
2015-03-27 05:03:00,39.5,39.2,30.18,SW,235,0.0,0.0,99,0.00,,,0.00,Wunderground v.1.15,2015-03-27 12:03:00,
2015-03-27 05:09:00,39.4,39.1,30.18,SW,235,0.0,0.0,99,0.00,,,0.00,Wunderground v.1.15,2015-03-27 12:09:00,
2015-03-27 05:15:00,38.2,37.4,30.18,SSW,197,1.0,2.0,97,0.00,,,0.00,Wunderground v.1.15,2015-03-27 12:15:00,
2015-03-27 05:21:00,37.7,37.2,30.18,SSW,194,1.0,1.0,98,0.00,,,0.00,Wunderground v.1.15,2015-03-27 12:21:00,
2015-03-27 05:27:00,37.9,37.4,30.18,SSW,194,0.0,1.0,98,0.00,,,0.00,Wunderground v.1.15,2015-03-27 12:27:00,
2015-03-27 05:32:00,37.9,37.4,30.18,SSW,194,0.0,0.0,98,0.00,,,0.00,Wunderground v.1.15,2015-03-27 12:32:00,
2015-03-27 05:38:00,37.5,37.0,30.18,SSW,194,0.0,0.0,98,0.00,,,0.00,Wunderground v.1.15,2015-03-27 12:38:00,
2015-03-27 05:44:00,37.5,37.0,30.18,SSW,194,0.0,0.0,98,0.00,,,0.00,Wunderground v.1.15,2015-03-27 12:44:00,
2015-03-27 05:50:00,37.3,36.8,30.18,SW,236,0.0,0.0,98,0.00,,,0.00,Wunderground v.1.15,2015-03-27 12:50:00,
2015-03-27 05:55:00,37.1,36.6,30.18,WSW,245,0.0,0.0,98,0.00,,,0.00,Wunderground v.1.15,2015-03-27 12:55:00,
2015-03-27 06:00:00,37.4,37.1,30.18,WSW,243,0.0,0.0,99,0.00,,,0.00,Wunderground v.1.15,2015-03-27 13:00:00,
2015-03-27 06:06:00,37.3,37.0,30.18,WSW,245,0.0,0.0,99,0.00,,,0.00,Wunderground v.1.15,2015-03-27 13:06:00,
2015-03-27 06:12:00,37.2,36.9,30.18,WSW,245,0.0,0.0,99,0.00,,,0.00,Wunderground v.1.15,2015-03-27 13:12:00,
2015-03-27 06:17:00,37.3,37.0,30.18,East,98,0.0,0.0,99,0.00,,,0.00,Wunderground v.1.15,2015-03-27 13:17:00,
2015-03-27 06:23:00,37.1,36.8,30.18,East,93,0.0,2.0,99,0.00,,,0.00,Wunderground v.1.15,2015-03-27 13:23:00,
2015-03-27 06:29:00,37.0,36.7,30.19,East,101,1.0,2.0,99,0.00,,,0.00,Wunderground v.1.15,2015-03-27 13:29:00,
2015-03-27 06:35:00,37.1,36.8,30.19,East,101,0.0,2.0,99,0.00,,,0.00,Wunderground v.1.15,2015-03-27 13:35:00,
2015-03-27 06:40:00,37.2,36.9,30.19,East,101,0.0,2.0,99,0.00,,,0.00,Wunderground v.1.15,2015-03-27 13:40:00,
2015-03-27 06:46:00,37.4,37.1,30.19,East,100,0.0,2.0,99,0.00,,,0.00,Wunderground v.1.15,2015-03-27 13:46:00,
2015-03-27 06:52:00,37.6,37.3,30.19,East,101,0.0,2.0,99,0.00,,,0.00,Wunderground v.1.15,2015-03-27 13:52:00,
2015-03-27 06:58:00,37.6,37.3,30.19,East,101,0.0,2.0,99,0.00,,,0.00,Wunderground v.1.15,2015-03-27 13:58:00,